sensor_id;sensor_type;location;lat;lon;timestamp;temperature;humidity
20750;DHT22;10535;50.664;4.564;2022-07-17T00:01:17;15.50;99.90
20750;DHT22;10535;50.664;4.564;2022-07-17T00:03:43;15.50;99.90
20750;DHT22;10535;50.664;4.564;2022-07-17T00:06:09;15.50;99.90
20750;DHT22;10535;50.664;4.564;2022-07-17T00:08:34;15.60;99.90
20750;DHT22;10535;50.664;4.564;2022-07-17T00:11:00;15.50;99.90
20750;DHT22;10535;50.664;4.564;2022-07-17T00:13:26;15.60;99.90
20750;DHT22;10535;50.664;4.564;2022-07-17T00:15:52;15.50;99.90
20750;DHT22;10535;50.664;4.564;2022-07-17T00:18:18;15.40;99.90
20750;DHT22;10535;50.664;4.564;2022-07-17T00:20:44;15.50;99.90
20750;DHT22;10535;50.664;4.564;2022-07-17T00:23:10;15.40;99.90
20750;DHT22;10535;50.664;4.564;2022-07-17T00:25:35;15.30;99.90
20750;DHT22;10535;50.664;4.564;2022-07-17T00:28:02;15.40;99.90
20750;DHT22;10535;50.664;4.564;2022-07-17T00:30:27;15.40;99.90
20750;DHT22;10535;50.664;4.564;2022-07-17T00:32:53;15.40;99.90
20750;DHT22;10535;50.664;4.564;2022-07-17T00:35:19;15.30;99.90
20750;DHT22;10535;50.664;4.564;2022-07-17T00:37:46;15.40;99.90
20750;DHT22;10535;50.664;4.564;2022-07-17T00:40:19;15.30;99.90
20750;DHT22;10535;50.664;4.564;2022-07-17T00:42:45;15.20;99.90
20750;DHT22;10535;50.664;4.564;2022-07-17T00:45:12;15.30;99.90
20750;DHT22;10535;50.664;4.564;2022-07-17T00:47:55;15.20;99.90
20750;DHT22;10535;50.664;4.564;2022-07-17T00:50:24;15.20;99.90
20750;DHT22;10535;50.664;4.564;2022-07-17T00:52:51;15.20;99.90
20750;DHT22;10535;50.664;4.564;2022-07-17T00:55:17;15.00;99.90
20750;DHT22;10535;50.664;4.564;2022-07-17T00:57:48;14.90;99.90
20750;DHT22;10535;50.664;4.564;2022-07-17T01:00:18;14.80;99.90
20750;DHT22;10535;50.664;4.564;2022-07-17T01:02:48;14.70;99.90
20750;DHT22;10535;50.664;4.564;2022-07-17T01:05:15;14.70;99.90
20750;DHT22;10535;50.664;4.564;2022-07-17T01:07:41;14.70;99.90
20750;DHT22;10535;50.664;4.564;2022-07-17T01:10:07;14.60;99.90
20750;DHT22;10535;50.664;4.564;2022-07-17T01:12:33;14.60;99.90
20750;DHT22;10535;50.664;4.564;2022-07-17T01:14:59;14.40;99.90
20750;DHT22;10535;50.664;4.564;2022-07-17T01:17:25;14.40;99.90
20750;DHT22;10535;50.664;4.564;2022-07-17T01:19:51;14.40;99.90
20750;DHT22;10535;50.664;4.564;2022-07-17T01:22:16;14.30;99.90
20750;DHT22;10535;50.664;4.564;2022-07-17T01:24:42;14.30;99.90
20750;DHT22;10535;50.664;4.564;2022-07-17T01:27:08;14.30;99.90
20750;DHT22;10535;50.664;4.564;2022-07-17T01:29:36;14.30;99.90
20750;DHT22;10535;50.664;4.564;2022-07-17T01:32:03;14.40;99.90
20750;DHT22;10535;50.664;4.564;2022-07-17T01:34:29;14.60;99.90
20750;DHT22;10535;50.664;4.564;2022-07-17T01:36:54;14.70;99.90
20750;DHT22;10535;50.664;4.564;2022-07-17T01:39:20;14.70;99.90
20750;DHT22;10535;50.664;4.564;2022-07-17T01:42:09;14.70;99.90
20750;DHT22;10535;50.664;4.564;2022-07-17T01:44:35;14.70;99.90
20750;DHT22;10535;50.664;4.564;2022-07-17T01:47:01;14.50;99.90
20750;DHT22;10535;50.664;4.564;2022-07-17T01:49:27;14.40;99.90
20750;DHT22;10535;50.664;4.564;2022-07-17T01:51:52;14.20;99.90
20750;DHT22;10535;50.664;4.564;2022-07-17T01:54:18;14.20;99.90
20750;DHT22;10535;50.664;4.564;2022-07-17T01:56:44;14.10;99.90
20750;DHT22;10535;50.664;4.564;2022-07-17T01:59:09;13.90;99.90
20750;DHT22;10535;50.664;4.564;2022-07-17T02:01:35;13.90;99.90
20750;DHT22;10535;50.664;4.564;2022-07-17T02:04:01;13.90;99.90
20750;DHT22;10535;50.664;4.564;2022-07-17T02:06:26;13.80;99.90
20750;DHT22;10535;50.664;4.564;2022-07-17T02:08:52;14.10;99.90
20750;DHT22;10535;50.664;4.564;2022-07-17T02:11:18;13.80;99.90
20750;DHT22;10535;50.664;4.564;2022-07-17T02:13:43;13.80;99.90
20750;DHT22;10535;50.664;4.564;2022-07-17T02:16:09;13.60;99.90
20750;DHT22;10535;50.664;4.564;2022-07-17T02:18:35;13.50;99.90
20750;DHT22;10535;50.664;4.564;2022-07-17T02:21:01;13.30;99.90
20750;DHT22;10535;50.664;4.564;2022-07-17T02:23:27;13.30;99.90
20750;DHT22;10535;50.664;4.564;2022-07-17T02:25:54;13.30;99.90
20750;DHT22;10535;50.664;4.564;2022-07-17T02:28:20;13.40;99.90
20750;DHT22;10535;50.664;4.564;2022-07-17T02:30:47;13.30;99.90
20750;DHT22;10535;50.664;4.564;2022-07-17T02:33:13;13.30;99.90
20750;DHT22;10535;50.664;4.564;2022-07-17T02:35:38;13.20;99.90
20750;DHT22;10535;50.664;4.564;2022-07-17T02:38:04;13.20;99.90
20750;DHT22;10535;50.664;4.564;2022-07-17T02:40:30;13.30;99.90
20750;DHT22;10535;50.664;4.564;2022-07-17T02:42:55;13.30;99.90
20750;DHT22;10535;50.664;4.564;2022-07-17T02:45:21;13.20;99.90
20750;DHT22;10535;50.664;4.564;2022-07-17T02:47:51;13.30;99.90
20750;DHT22;10535;50.664;4.564;2022-07-17T02:50:17;13.30;99.90
20750;DHT22;10535;50.664;4.564;2022-07-17T02:52:42;13.30;99.90
20750;DHT22;10535;50.664;4.564;2022-07-17T02:55:10;13.10;99.90
20750;DHT22;10535;50.664;4.564;2022-07-17T02:57:36;13.10;99.90
20750;DHT22;10535;50.664;4.564;2022-07-17T03:00:05;13.00;99.90
20750;DHT22;10535;50.664;4.564;2022-07-17T03:02:31;12.90;99.90
20750;DHT22;10535;50.664;4.564;2022-07-17T03:04:57;12.90;99.90
20750;DHT22;10535;50.664;4.564;2022-07-17T03:07:23;12.90;99.90
20750;DHT22;10535;50.664;4.564;2022-07-17T03:09:48;12.90;99.90
20750;DHT22;10535;50.664;4.564;2022-07-17T03:12:14;13.00;99.90
20750;DHT22;10535;50.664;4.564;2022-07-17T03:14:40;13.10;99.90
20750;DHT22;10535;50.664;4.564;2022-07-17T03:17:06;13.00;99.90
20750;DHT22;10535;50.664;4.564;2022-07-17T03:19:31;12.80;99.90
20750;DHT22;10535;50.664;4.564;2022-07-17T03:21:57;12.80;99.90
20750;DHT22;10535;50.664;4.564;2022-07-17T03:24:22;12.80;99.90
20750;DHT22;10535;50.664;4.564;2022-07-17T03:26:48;12.80;99.90
20750;DHT22;10535;50.664;4.564;2022-07-17T03:29:14;12.90;99.90
20750;DHT22;10535;50.664;4.564;2022-07-17T03:31:43;12.70;99.90
20750;DHT22;10535;50.664;4.564;2022-07-17T03:34:08;12.70;99.90
20750;DHT22;10535;50.664;4.564;2022-07-17T03:36:34;12.70;99.90
20750;DHT22;10535;50.664;4.564;2022-07-17T03:39:00;12.70;99.90
20750;DHT22;10535;50.664;4.564;2022-07-17T03:41:25;12.70;99.90
20750;DHT22;10535;50.664;4.564;2022-07-17T03:43:51;12.70;99.90
20750;DHT22;10535;50.664;4.564;2022-07-17T03:46:17;12.70;99.90
20750;DHT22;10535;50.664;4.564;2022-07-17T03:48:43;12.70;99.90
20750;DHT22;10535;50.664;4.564;2022-07-17T03:51:08;12.80;99.90
20750;DHT22;10535;50.664;4.564;2022-07-17T03:53:34;12.80;99.90
20750;DHT22;10535;50.664;4.564;2022-07-17T03:56:00;12.70;99.90
20750;DHT22;10535;50.664;4.564;2022-07-17T03:58:25;12.60;99.90
20750;DHT22;10535;50.664;4.564;2022-07-17T04:00:52;12.50;99.90
20750;DHT22;10535;50.664;4.564;2022-07-17T04:03:18;12.60;99.90
20750;DHT22;10535;50.664;4.564;2022-07-17T04:05:43;12.60;99.90
20750;DHT22;10535;50.664;4.564;2022-07-17T04:08:09;12.60;99.90
20750;DHT22;10535;50.664;4.564;2022-07-17T04:10:35;12.70;99.90
20750;DHT22;10535;50.664;4.564;2022-07-17T04:13:02;12.80;99.90
20750;DHT22;10535;50.664;4.564;2022-07-17T04:15:28;12.80;99.90
20750;DHT22;10535;50.664;4.564;2022-07-17T04:18:12;12.70;99.90
20750;DHT22;10535;50.664;4.564;2022-07-17T04:20:39;12.70;99.90
20750;DHT22;10535;50.664;4.564;2022-07-17T04:23:05;12.70;99.90
20750;DHT22;10535;50.664;4.564;2022-07-17T04:25:31;12.80;99.90
20750;DHT22;10535;50.664;4.564;2022-07-17T04:27:56;12.80;99.90
20750;DHT22;10535;50.664;4.564;2022-07-17T04:30:23;12.90;99.90
20750;DHT22;10535;50.664;4.564;2022-07-17T04:32:48;13.00;99.90
20750;DHT22;10535;50.664;4.564;2022-07-17T04:35:14;12.90;99.90
20750;DHT22;10535;50.664;4.564;2022-07-17T04:37:40;13.00;99.90
20750;DHT22;10535;50.664;4.564;2022-07-17T04:40:06;13.10;99.90
20750;DHT22;10535;50.664;4.564;2022-07-17T04:42:32;13.30;99.90
20750;DHT22;10535;50.664;4.564;2022-07-17T04:44:58;13.60;99.90
20750;DHT22;10535;50.664;4.564;2022-07-17T04:47:24;13.80;99.90
20750;DHT22;10535;50.664;4.564;2022-07-17T04:49:49;13.60;99.90
20750;DHT22;10535;50.664;4.564;2022-07-17T04:52:15;13.70;99.90
20750;DHT22;10535;50.664;4.564;2022-07-17T04:54:41;13.70;99.90
20750;DHT22;10535;50.664;4.564;2022-07-17T04:57:06;13.80;99.90
20750;DHT22;10535;50.664;4.564;2022-07-17T04:59:32;13.90;99.90
20750;DHT22;10535;50.664;4.564;2022-07-17T05:01:58;13.90;99.90
20750;DHT22;10535;50.664;4.564;2022-07-17T05:04:23;14.10;99.90
20750;DHT22;10535;50.664;4.564;2022-07-17T05:06:50;14.30;99.90
20750;DHT22;10535;50.664;4.564;2022-07-17T05:09:15;14.50;99.90
20750;DHT22;10535;50.664;4.564;2022-07-17T05:11:41;14.90;99.90
20750;DHT22;10535;50.664;4.564;2022-07-17T05:14:06;15.40;99.90
20750;DHT22;10535;50.664;4.564;2022-07-17T05:16:32;16.30;99.90
20750;DHT22;10535;50.664;4.564;2022-07-17T05:18:57;16.70;99.90
20750;DHT22;10535;50.664;4.564;2022-07-17T05:21:23;16.90;99.90
20750;DHT22;10535;50.664;4.564;2022-07-17T05:23:49;16.80;99.90
20750;DHT22;10535;50.664;4.564;2022-07-17T05:26:14;17.20;99.90
20750;DHT22;10535;50.664;4.564;2022-07-17T05:28:42;17.70;99.90
20750;DHT22;10535;50.664;4.564;2022-07-17T05:31:07;18.40;99.90
20750;DHT22;10535;50.664;4.564;2022-07-17T05:33:33;18.80;99.90
20750;DHT22;10535;50.664;4.564;2022-07-17T05:35:59;19.50;99.90
20750;DHT22;10535;50.664;4.564;2022-07-17T05:38:24;20.00;99.90
20750;DHT22;10535;50.664;4.564;2022-07-17T05:40:50;20.10;99.90
20750;DHT22;10535;50.664;4.564;2022-07-17T05:43:16;20.70;99.90
20750;DHT22;10535;50.664;4.564;2022-07-17T05:45:41;21.10;99.90
20750;DHT22;10535;50.664;4.564;2022-07-17T05:48:07;21.40;99.90
20750;DHT22;10535;50.664;4.564;2022-07-17T05:50:33;21.60;99.90
20750;DHT22;10535;50.664;4.564;2022-07-17T05:52:59;22.00;99.90
20750;DHT22;10535;50.664;4.564;2022-07-17T05:55:25;22.30;99.90
20750;DHT22;10535;50.664;4.564;2022-07-17T05:57:50;22.50;99.90
20750;DHT22;10535;50.664;4.564;2022-07-17T06:00:16;22.40;99.90
20750;DHT22;10535;50.664;4.564;2022-07-17T06:02:44;22.10;99.90
20750;DHT22;10535;50.664;4.564;2022-07-17T06:05:09;22.30;99.90
20750;DHT22;10535;50.664;4.564;2022-07-17T06:07:36;22.10;99.90
20750;DHT22;10535;50.664;4.564;2022-07-17T06:10:03;21.80;99.90
20750;DHT22;10535;50.664;4.564;2022-07-17T06:12:29;21.40;99.90
20750;DHT22;10535;50.664;4.564;2022-07-17T06:14:54;20.90;99.90
20750;DHT22;10535;50.664;4.564;2022-07-17T06:17:20;19.90;99.90
20750;DHT22;10535;50.664;4.564;2022-07-17T06:19:46;19.70;99.90
20750;DHT22;10535;50.664;4.564;2022-07-17T06:22:12;19.90;99.90
20750;DHT22;10535;50.664;4.564;2022-07-17T06:24:37;19.70;99.90
20750;DHT22;10535;50.664;4.564;2022-07-17T06:27:03;19.60;99.90
20750;DHT22;10535;50.664;4.564;2022-07-17T06:29:29;19.50;99.90
20750;DHT22;10535;50.664;4.564;2022-07-17T06:31:54;19.40;99.90
20750;DHT22;10535;50.664;4.564;2022-07-17T06:34:20;19.30;99.90
20750;DHT22;10535;50.664;4.564;2022-07-17T06:36:45;19.10;99.90
20750;DHT22;10535;50.664;4.564;2022-07-17T06:39:12;19.50;99.90
20750;DHT22;10535;50.664;4.564;2022-07-17T06:41:37;20.10;99.90
20750;DHT22;10535;50.664;4.564;2022-07-17T06:44:03;20.50;99.90
20750;DHT22;10535;50.664;4.564;2022-07-17T06:46:29;20.80;99.90
20750;DHT22;10535;50.664;4.564;2022-07-17T06:48:54;20.90;99.90
20750;DHT22;10535;50.664;4.564;2022-07-17T06:51:20;21.00;99.90
20750;DHT22;10535;50.664;4.564;2022-07-17T06:53:45;21.10;99.90
20750;DHT22;10535;50.664;4.564;2022-07-17T06:56:11;21.10;99.90
20750;DHT22;10535;50.664;4.564;2022-07-17T06:58:37;21.90;99.90
20750;DHT22;10535;50.664;4.564;2022-07-17T07:01:02;21.50;99.90
20750;DHT22;10535;50.664;4.564;2022-07-17T07:03:28;21.80;99.90
20750;DHT22;10535;50.664;4.564;2022-07-17T07:05:53;22.30;99.90
20750;DHT22;10535;50.664;4.564;2022-07-17T07:08:20;22.20;99.90
20750;DHT22;10535;50.664;4.564;2022-07-17T07:10:46;22.90;99.90
20750;DHT22;10535;50.664;4.564;2022-07-17T07:13:11;23.30;99.90
20750;DHT22;10535;50.664;4.564;2022-07-17T07:15:38;23.50;99.90
20750;DHT22;10535;50.664;4.564;2022-07-17T07:18:03;23.50;99.90
20750;DHT22;10535;50.664;4.564;2022-07-17T07:20:29;23.90;99.90
20750;DHT22;10535;50.664;4.564;2022-07-17T07:22:54;24.20;99.90
20750;DHT22;10535;50.664;4.564;2022-07-17T07:25:20;24.00;99.90
20750;DHT22;10535;50.664;4.564;2022-07-17T07:27:47;24.00;99.90
20750;DHT22;10535;50.664;4.564;2022-07-17T07:30:12;23.90;99.90
20750;DHT22;10535;50.664;4.564;2022-07-17T07:32:39;24.20;99.90
20750;DHT22;10535;50.664;4.564;2022-07-17T07:35:06;23.10;99.90
20750;DHT22;10535;50.664;4.564;2022-07-17T07:37:32;23.10;99.90
20750;DHT22;10535;50.664;4.564;2022-07-17T07:39:58;23.10;99.90
20750;DHT22;10535;50.664;4.564;2022-07-17T07:42:25;23.10;99.90
20750;DHT22;10535;50.664;4.564;2022-07-17T07:44:51;23.50;99.90
20750;DHT22;10535;50.664;4.564;2022-07-17T07:47:17;23.60;99.90
20750;DHT22;10535;50.664;4.564;2022-07-17T07:49:43;23.70;99.90
20750;DHT22;10535;50.664;4.564;2022-07-17T07:52:09;24.10;99.90
20750;DHT22;10535;50.664;4.564;2022-07-17T07:54:34;23.90;99.90
20750;DHT22;10535;50.664;4.564;2022-07-17T07:57:00;23.40;99.90
20750;DHT22;10535;50.664;4.564;2022-07-17T07:59:26;23.80;99.90
20750;DHT22;10535;50.664;4.564;2022-07-17T08:01:52;23.70;99.90
20750;DHT22;10535;50.664;4.564;2022-07-17T08:04:18;23.60;99.90
20750;DHT22;10535;50.664;4.564;2022-07-17T08:06:44;23.60;99.90
20750;DHT22;10535;50.664;4.564;2022-07-17T08:09:09;23.20;99.90
20750;DHT22;10535;50.664;4.564;2022-07-17T08:11:35;22.70;99.90
20750;DHT22;10535;50.664;4.564;2022-07-17T08:14:00;22.30;99.90
20750;DHT22;10535;50.664;4.564;2022-07-17T08:16:26;21.80;99.90
20750;DHT22;10535;50.664;4.564;2022-07-17T08:18:52;21.70;99.90
20750;DHT22;10535;50.664;4.564;2022-07-17T08:21:17;21.70;99.90
20750;DHT22;10535;50.664;4.564;2022-07-17T08:23:43;21.60;99.90
20750;DHT22;10535;50.664;4.564;2022-07-17T08:26:08;21.60;99.90
20750;DHT22;10535;50.664;4.564;2022-07-17T08:28:34;21.70;99.90
20750;DHT22;10535;50.664;4.564;2022-07-17T08:31:00;21.80;99.90
20750;DHT22;10535;50.664;4.564;2022-07-17T08:33:26;21.70;99.90
20750;DHT22;10535;50.664;4.564;2022-07-17T08:35:51;21.60;99.90
20750;DHT22;10535;50.664;4.564;2022-07-17T08:38:17;21.70;99.90
20750;DHT22;10535;50.664;4.564;2022-07-17T08:40:43;21.80;99.90
20750;DHT22;10535;50.664;4.564;2022-07-17T08:43:14;21.90;99.90
20750;DHT22;10535;50.664;4.564;2022-07-17T08:45:40;21.80;99.90
20750;DHT22;10535;50.664;4.564;2022-07-17T08:48:06;21.90;99.90
20750;DHT22;10535;50.664;4.564;2022-07-17T08:50:34;22.10;99.90
20750;DHT22;10535;50.664;4.564;2022-07-17T08:53:01;21.90;99.90
20750;DHT22;10535;50.664;4.564;2022-07-17T08:55:27;21.50;99.90
20750;DHT22;10535;50.664;4.564;2022-07-17T08:57:53;21.50;99.90
20750;DHT22;10535;50.664;4.564;2022-07-17T09:00:21;21.70;99.90
20750;DHT22;10535;50.664;4.564;2022-07-17T09:03:03;22.20;99.90
20750;DHT22;10535;50.664;4.564;2022-07-17T09:05:38;22.20;99.90
20750;DHT22;10535;50.664;4.564;2022-07-17T09:08:06;22.20;99.90
20750;DHT22;10535;50.664;4.564;2022-07-17T09:10:40;22.40;99.90
20750;DHT22;10535;50.664;4.564;2022-07-17T09:13:26;22.30;99.90
20750;DHT22;10535;50.664;4.564;2022-07-17T09:15:57;22.60;99.90
20750;DHT22;10535;50.664;4.564;2022-07-17T09:18:23;22.90;99.90
20750;DHT22;10535;50.664;4.564;2022-07-17T09:20:57;23.30;99.90
20750;DHT22;10535;50.664;4.564;2022-07-17T09:23:25;23.00;99.90
20750;DHT22;10535;50.664;4.564;2022-07-17T09:25:54;22.80;99.90
20750;DHT22;10535;50.664;4.564;2022-07-17T09:28:20;22.70;99.90
20750;DHT22;10535;50.664;4.564;2022-07-17T09:30:49;22.80;99.90
20750;DHT22;10535;50.664;4.564;2022-07-17T09:33:21;23.00;99.90
20750;DHT22;10535;50.664;4.564;2022-07-17T09:36:05;23.20;99.90
20750;DHT22;10535;50.664;4.564;2022-07-17T09:38:37;23.40;99.90
20750;DHT22;10535;50.664;4.564;2022-07-17T09:43:42;23.70;99.90
20750;DHT22;10535;50.664;4.564;2022-07-17T09:46:15;24.00;99.90
20750;DHT22;10535;50.664;4.564;2022-07-17T09:48:43;23.70;99.90
20750;DHT22;10535;50.664;4.564;2022-07-17T09:51:18;23.80;99.90
20750;DHT22;10535;50.664;4.564;2022-07-17T09:53:48;24.00;99.90
20750;DHT22;10535;50.664;4.564;2022-07-17T09:56:16;23.70;99.90
20750;DHT22;10535;50.664;4.564;2022-07-17T09:58:47;23.40;99.90
20750;DHT22;10535;50.664;4.564;2022-07-17T10:01:14;23.70;99.90
20750;DHT22;10535;50.664;4.564;2022-07-17T10:03:41;24.10;99.90
20750;DHT22;10535;50.664;4.564;2022-07-17T10:06:08;23.80;99.90
20750;DHT22;10535;50.664;4.564;2022-07-17T10:08:34;23.60;99.90
20750;DHT22;10535;50.664;4.564;2022-07-17T10:11:00;23.40;99.90
20750;DHT22;10535;50.664;4.564;2022-07-17T10:13:26;23.40;99.90
20750;DHT22;10535;50.664;4.564;2022-07-17T10:15:53;23.80;99.90
20750;DHT22;10535;50.664;4.564;2022-07-17T10:18:21;23.90;99.90
20750;DHT22;10535;50.664;4.564;2022-07-17T10:20:46;24.20;99.90
20750;DHT22;10535;50.664;4.564;2022-07-17T10:23:15;24.40;99.90
20750;DHT22;10535;50.664;4.564;2022-07-17T10:25:41;24.60;99.90
20750;DHT22;10535;50.664;4.564;2022-07-17T10:28:08;24.30;99.90
20750;DHT22;10535;50.664;4.564;2022-07-17T10:30:34;24.20;99.90
20750;DHT22;10535;50.664;4.564;2022-07-17T10:33:04;24.00;99.90
20750;DHT22;10535;50.664;4.564;2022-07-17T10:35:49;24.10;99.90
20750;DHT22;10535;50.664;4.564;2022-07-17T10:38:15;24.20;99.90
20750;DHT22;10535;50.664;4.564;2022-07-17T10:40:42;24.60;99.90
20750;DHT22;10535;50.664;4.564;2022-07-17T10:43:08;24.20;99.90
20750;DHT22;10535;50.664;4.564;2022-07-17T10:45:35;23.60;99.90
20750;DHT22;10535;50.664;4.564;2022-07-17T10:48:07;23.60;99.90
20750;DHT22;10535;50.664;4.564;2022-07-17T10:50:40;23.90;99.90
20750;DHT22;10535;50.664;4.564;2022-07-17T10:53:14;24.10;99.90
20750;DHT22;10535;50.664;4.564;2022-07-17T10:55:48;24.30;99.90
20750;DHT22;10535;50.664;4.564;2022-07-17T11:03:29;25.10;99.90
20750;DHT22;10535;50.664;4.564;2022-07-17T11:06:05;24.70;99.90
20750;DHT22;10535;50.664;4.564;2022-07-17T11:08:31;24.40;99.90
20750;DHT22;10535;50.664;4.564;2022-07-17T11:10:57;24.80;99.90
20750;DHT22;10535;50.664;4.564;2022-07-17T11:13:22;25.20;99.90
20750;DHT22;10535;50.664;4.564;2022-07-17T11:15:48;25.10;99.90
20750;DHT22;10535;50.664;4.564;2022-07-17T11:18:19;25.00;99.90
20750;DHT22;10535;50.664;4.564;2022-07-17T11:20:59;24.70;99.90
20750;DHT22;10535;50.664;4.564;2022-07-17T11:23:29;24.70;99.90
20750;DHT22;10535;50.664;4.564;2022-07-17T11:26:03;24.50;99.90
20750;DHT22;10535;50.664;4.564;2022-07-17T11:30:56;24.50;99.90
20750;DHT22;10535;50.664;4.564;2022-07-17T11:33:21;24.60;99.90
20750;DHT22;10535;50.664;4.564;2022-07-17T11:35:47;24.60;99.90
20750;DHT22;10535;50.664;4.564;2022-07-17T11:38:13;24.80;99.90
20750;DHT22;10535;50.664;4.564;2022-07-17T11:40:49;25.10;99.90
20750;DHT22;10535;50.664;4.564;2022-07-17T11:43:15;25.50;99.90
20750;DHT22;10535;50.664;4.564;2022-07-17T11:45:42;25.80;99.90
20750;DHT22;10535;50.664;4.564;2022-07-17T11:48:08;25.30;99.90
20750;DHT22;10535;50.664;4.564;2022-07-17T11:50:34;25.00;99.90
20750;DHT22;10535;50.664;4.564;2022-07-17T11:53:04;25.20;99.90
20750;DHT22;10535;50.664;4.564;2022-07-17T11:55:38;25.20;99.90
20750;DHT22;10535;50.664;4.564;2022-07-17T11:58:03;25.40;99.90
20750;DHT22;10535;50.664;4.564;2022-07-17T12:00:29;25.90;99.90
20750;DHT22;10535;50.664;4.564;2022-07-17T12:03:05;25.80;99.90
20750;DHT22;10535;50.664;4.564;2022-07-17T12:05:33;25.80;99.90
20750;DHT22;10535;50.664;4.564;2022-07-17T12:07:59;25.80;99.90
20750;DHT22;10535;50.664;4.564;2022-07-17T12:10:27;25.90;99.90
20750;DHT22;10535;50.664;4.564;2022-07-17T12:13:05;25.50;99.90
20750;DHT22;10535;50.664;4.564;2022-07-17T12:18:04;24.90;99.90
20750;DHT22;10535;50.664;4.564;2022-07-17T12:20:44;25.10;99.90
20750;DHT22;10535;50.664;4.564;2022-07-17T12:23:35;25.10;99.90
20750;DHT22;10535;50.664;4.564;2022-07-17T12:26:15;25.00;99.90
20750;DHT22;10535;50.664;4.564;2022-07-17T12:28:42;25.40;99.90
20750;DHT22;10535;50.664;4.564;2022-07-17T12:31:09;25.80;99.90
20750;DHT22;10535;50.664;4.564;2022-07-17T12:33:35;25.90;99.90
20750;DHT22;10535;50.664;4.564;2022-07-17T12:36:01;26.00;99.90
20750;DHT22;10535;50.664;4.564;2022-07-17T12:38:27;26.00;99.90
20750;DHT22;10535;50.664;4.564;2022-07-17T12:40:52;26.00;99.90
20750;DHT22;10535;50.664;4.564;2022-07-17T12:43:18;26.10;99.90
20750;DHT22;10535;50.664;4.564;2022-07-17T12:45:44;26.40;99.90
20750;DHT22;10535;50.664;4.564;2022-07-17T12:48:09;26.70;99.90
20750;DHT22;10535;50.664;4.564;2022-07-17T12:50:35;26.80;99.90
20750;DHT22;10535;50.664;4.564;2022-07-17T12:53:01;26.50;99.90
20750;DHT22;10535;50.664;4.564;2022-07-17T12:55:26;26.50;99.90
20750;DHT22;10535;50.664;4.564;2022-07-17T12:57:52;26.60;99.90
20750;DHT22;10535;50.664;4.564;2022-07-17T13:00:18;26.70;99.90
20750;DHT22;10535;50.664;4.564;2022-07-17T13:02:44;26.40;99.90
20750;DHT22;10535;50.664;4.564;2022-07-17T13:05:09;26.30;99.90
20750;DHT22;10535;50.664;4.564;2022-07-17T13:07:35;26.30;99.90
20750;DHT22;10535;50.664;4.564;2022-07-17T13:10:00;25.80;99.90
20750;DHT22;10535;50.664;4.564;2022-07-17T13:12:26;26.00;99.90
20750;DHT22;10535;50.664;4.564;2022-07-17T13:14:52;26.40;99.90
20750;DHT22;10535;50.664;4.564;2022-07-17T13:17:17;26.30;99.90
20750;DHT22;10535;50.664;4.564;2022-07-17T13:19:43;26.10;99.90
20750;DHT22;10535;50.664;4.564;2022-07-17T13:22:09;26.10;99.90
20750;DHT22;10535;50.664;4.564;2022-07-17T13:24:34;26.50;99.90
20750;DHT22;10535;50.664;4.564;2022-07-17T13:27:00;26.70;99.90
20750;DHT22;10535;50.664;4.564;2022-07-17T13:29:26;26.40;99.90
20750;DHT22;10535;50.664;4.564;2022-07-17T13:31:55;26.50;99.90
20750;DHT22;10535;50.664;4.564;2022-07-17T13:34:22;26.70;99.90
20750;DHT22;10535;50.664;4.564;2022-07-17T13:36:48;27.00;99.90
20750;DHT22;10535;50.664;4.564;2022-07-17T13:39:14;27.20;99.90
20750;DHT22;10535;50.664;4.564;2022-07-17T13:41:40;27.40;99.90
20750;DHT22;10535;50.664;4.564;2022-07-17T13:44:06;27.60;99.90
20750;DHT22;10535;50.664;4.564;2022-07-17T13:46:32;27.40;99.90
20750;DHT22;10535;50.664;4.564;2022-07-17T13:48:58;27.00;99.90
20750;DHT22;10535;50.664;4.564;2022-07-17T13:51:26;26.60;99.90
20750;DHT22;10535;50.664;4.564;2022-07-17T13:53:51;26.50;99.90
20750;DHT22;10535;50.664;4.564;2022-07-17T13:56:17;26.60;99.90
20750;DHT22;10535;50.664;4.564;2022-07-17T13:58:43;26.70;99.90
20750;DHT22;10535;50.664;4.564;2022-07-17T14:01:11;26.90;99.90
20750;DHT22;10535;50.664;4.564;2022-07-17T14:03:37;27.30;99.90
20750;DHT22;10535;50.664;4.564;2022-07-17T14:06:03;27.60;99.90
20750;DHT22;10535;50.664;4.564;2022-07-17T14:08:28;27.70;99.90
20750;DHT22;10535;50.664;4.564;2022-07-17T14:10:54;27.70;99.90
20750;DHT22;10535;50.664;4.564;2022-07-17T14:13:20;27.00;99.90
20750;DHT22;10535;50.664;4.564;2022-07-17T14:15:46;26.80;99.90
20750;DHT22;10535;50.664;4.564;2022-07-17T14:18:11;27.10;99.90
20750;DHT22;10535;50.664;4.564;2022-07-17T14:20:37;27.30;99.90
20750;DHT22;10535;50.664;4.564;2022-07-17T14:23:03;27.50;99.90
20750;DHT22;10535;50.664;4.564;2022-07-17T14:25:28;27.60;99.90
20750;DHT22;10535;50.664;4.564;2022-07-17T14:27:54;27.60;99.90
20750;DHT22;10535;50.664;4.564;2022-07-17T14:30:20;27.70;99.90
20750;DHT22;10535;50.664;4.564;2022-07-17T14:32:46;27.80;99.90
20750;DHT22;10535;50.664;4.564;2022-07-17T14:35:11;27.90;99.90
20750;DHT22;10535;50.664;4.564;2022-07-17T14:37:37;27.90;99.90
20750;DHT22;10535;50.664;4.564;2022-07-17T14:40:03;27.90;99.90
20750;DHT22;10535;50.664;4.564;2022-07-17T14:42:29;27.90;99.90
20750;DHT22;10535;50.664;4.564;2022-07-17T14:44:54;27.60;99.90
20750;DHT22;10535;50.664;4.564;2022-07-17T14:47:20;27.70;99.90
20750;DHT22;10535;50.664;4.564;2022-07-17T14:49:47;27.80;99.90
20750;DHT22;10535;50.664;4.564;2022-07-17T14:52:13;27.80;99.90
20750;DHT22;10535;50.664;4.564;2022-07-17T14:54:38;27.30;99.90
20750;DHT22;10535;50.664;4.564;2022-07-17T14:57:04;27.10;99.90
20750;DHT22;10535;50.664;4.564;2022-07-17T14:59:29;27.40;99.90
20750;DHT22;10535;50.664;4.564;2022-07-17T15:01:55;27.70;99.90
20750;DHT22;10535;50.664;4.564;2022-07-17T15:04:21;28.10;99.90
20750;DHT22;10535;50.664;4.564;2022-07-17T15:06:46;28.30;99.90
20750;DHT22;10535;50.664;4.564;2022-07-17T15:09:12;28.30;99.90
20750;DHT22;10535;50.664;4.564;2022-07-17T15:11:38;28.00;99.90
20750;DHT22;10535;50.664;4.564;2022-07-17T15:14:04;27.70;99.90
20750;DHT22;10535;50.664;4.564;2022-07-17T15:16:30;27.70;99.90
20750;DHT22;10535;50.664;4.564;2022-07-17T15:18:57;27.80;99.90
20750;DHT22;10535;50.664;4.564;2022-07-17T15:21:23;27.70;99.90
20750;DHT22;10535;50.664;4.564;2022-07-17T15:23:49;27.60;99.90
20750;DHT22;10535;50.664;4.564;2022-07-17T15:26:15;27.30;99.90
20750;DHT22;10535;50.664;4.564;2022-07-17T15:28:40;27.20;99.90
20750;DHT22;10535;50.664;4.564;2022-07-17T15:31:06;27.10;99.90
20750;DHT22;10535;50.664;4.564;2022-07-17T15:33:32;27.20;99.90
20750;DHT22;10535;50.664;4.564;2022-07-17T15:35:59;27.20;99.90
20750;DHT22;10535;50.664;4.564;2022-07-17T15:38:25;27.50;99.90
20750;DHT22;10535;50.664;4.564;2022-07-17T15:40:51;27.40;99.90